Time;durP1;ratioP1;P1;durP2;ratioP2;P2;SDS_P1;SDS_P2;PMS_P1;PMS_P2;Temp;Humidity;BMP_temperature;BMP_pressure;BME280_temperature;BME280_humidity;BME280_pressure;Samples;Min_cycle;Max_cycle;Signal;HPM_P1;HPM_P2
2020/12/21 05:17:43;;;;;;;4.82;2.05;;;5.10;99.90;;;;;;5929945;23;20028;31
2020/12/21 05:20:11;;;;;;;7.47;2.92;;;5.10;99.90;;;;;;4906461;29;19923;-72
2020/12/21 05:22:36;;;;;;;7.35;3.10;;;5.10;99.90;;;;;;4912218;29;20033;-72
2020/12/21 05:25:09;;;;;;;9.15;2.95;;;5.10;99.90;;;;;;4898472;29;20036;-72
2020/12/21 05:27:34;;;;;;;9.55;2.90;;;5.10;99.90;;;;;;4902617;29;20076;-72
2020/12/21 05:30:03;;;;;;;10.38;3.05;;;5.00;99.90;;;;;;4901677;29;20051;-73
2020/12/21 05:32:28;;;;;;;11.73;3.03;;;5.00;99.90;;;;;;4916977;29;20028;-80
2020/12/21 05:35:09;;;;;;;8.43;2.70;;;5.00;99.90;;;;;;4916584;29;20020;-79
2020/12/21 05:37:37;;;;;;;9.73;2.90;;;5.10;99.90;;;;;;4908800;29;20067;-77
2020/12/21 05:40:04;;;;;;;12.85;4.30;;;5.10;99.90;;;;;;4912333;29;20040;-79
2020/12/21 05:42:30;;;;;;;12.45;3.50;;;5.10;99.90;;;;;;4916814;29;20112;-78
2020/12/21 05:45:01;;;;;;;12.77;3.75;;;5.30;99.90;;;;;;4916874;29;20111;-75
2020/12/21 05:47:28;;;;;;;10.38;3.47;;;5.30;99.90;;;;;;4903331;29;20095;-76
2020/12/21 05:50:18;;;;;;;15.52;3.40;;;5.30;99.90;;;;;;4916162;29;20036;-75
2020/12/21 05:52:48;;;;;;;8.65;3.38;;;5.20;99.90;;;;;;4900139;29;20047;-73
2020/12/21 05:55:13;;;;;;;8.50;3.15;;;5.10;99.90;;;;;;4906012;29;20093;-73
2020/12/21 05:57:40;;;;;;;10.05;3.60;;;5.20;99.90;;;;;;4901531;29;20135;-75
2020/12/21 06:00:07;;;;;;;9.57;3.75;;;5.10;99.90;;;;;;4902941;29;20028;-76
2020/12/21 06:02:33;;;;;;;8.00;3.42;;;5.10;99.90;;;;;;4900481;29;20035;-76
2020/12/21 06:05:05;;;;;;;9.27;3.42;;;5.10;99.90;;;;;;4902592;29;20021;-76
2020/12/21 06:07:33;;;;;;;13.23;3.70;;;5.10;99.90;;;;;;4909551;29;20384;-76
2020/12/21 06:10:02;;;;;;;12.18;3.25;;;5.10;99.90;;;;;;4900337;29;20489;-75
2020/12/21 06:12:33;;;;;;;9.10;3.10;;;5.10;99.90;;;;;;4900882;29;20061;-76
2020/12/21 06:15:05;;;;;;;17.95;5.05;;;5.10;99.90;;;;;;4908578;29;20017;-76
2020/12/21 06:17:35;;;;;;;6.82;2.75;;;5.10;99.90;;;;;;4897958;29;20032;-73
2020/12/21 06:20:09;;;;;;;8.07;3.10;;;5.10;99.90;;;;;;4908168;29;20051;-72
2020/12/21 06:22:36;;;;;;;13.32;3.28;;;5.10;99.90;;;;;;4897352;29;20386;-71
2020/12/21 06:25:05;;;;;;;10.52;3.08;;;5.10;99.90;;;;;;4896917;29;20428;-84
2020/12/21 06:27:38;;;;;;;10.75;3.00;;;5.20;99.90;;;;;;4896910;29;20039;-81
2020/12/21 06:30:05;;;;;;;9.23;2.90;;;5.10;99.90;;;;;;4896756;29;20032;-78
2020/12/21 06:32:33;;;;;;;8.25;3.03;;;5.20;99.90;;;;;;4898576;29;20036;-78
2020/12/21 06:35:00;;;;;;;10.73;3.40;;;5.20;99.90;;;;;;4900307;29;20168;-78
2020/12/21 06:37:26;;;;;;;6.15;2.92;;;5.20;99.90;;;;;;4897129;29;20021;-78
2020/12/21 06:40:05;;;;;;;6.72;2.60;;;5.20;99.90;;;;;;4898959;29;20040;-78
2020/12/21 06:42:31;;;;;;;7.97;3.28;;;5.20;99.90;;;;;;4909597;29;20043;-78
2020/12/21 06:44:57;;;;;;;9.43;3.00;;;5.20;99.90;;;;;;4906834;29;20388;-78
2020/12/21 06:47:27;;;;;;;9.90;3.13;;;5.20;99.90;;;;;;4910523;29;20042;-78
2020/12/21 06:49:54;;;;;;;9.98;3.05;;;5.20;99.90;;;;;;4905602;29;20392;-78
2020/12/21 06:52:21;;;;;;;11.05;3.40;;;5.20;99.90;;;;;;4910836;29;20119;-78
2020/12/21 06:54:50;;;;;;;15.40;3.50;;;5.10;99.90;;;;;;4906771;29;20024;-72
2020/12/21 06:57:16;;;;;;;14.38;3.40;;;5.20;99.90;;;;;;4909687;29;20024;-74
2020/12/21 06:59:41;;;;;;;12.23;3.40;;;5.20;99.90;;;;;;4899805;29;20045;-74
2020/12/21 07:02:09;;;;;;;15.07;4.20;;;5.20;99.90;;;;;;4908068;29;20515;-74
2020/12/21 07:04:35;;;;;;;17.08;3.95;;;5.20;99.90;;;;;;4909800;29;20028;-74
2020/12/21 07:07:02;;;;;;;10.23;3.38;;;5.20;99.90;;;;;;4906330;29;20623;-75
2020/12/21 07:09:31;;;;;;;11.32;3.42;;;5.20;99.90;;;;;;4910323;29;20036;-71
2020/12/21 07:12:00;;;;;;;11.27;3.58;;;5.30;99.90;;;;;;4905773;29;20025;-80
2020/12/21 07:14:28;;;;;;;10.68;3.13;;;5.30;99.90;;;;;;4910543;29;20028;-82
2020/12/21 07:17:17;;;;;;;12.45;3.05;;;5.50;99.90;;;;;;4907478;29;20433;-79
2020/12/21 07:19:43;;;;;;;11.00;3.10;;;6.00;99.90;;;;;;4903684;29;20152;-78
2020/12/21 07:22:11;;;;;;;9.50;2.60;;;6.00;99.90;;;;;;4904461;29;20483;-76
2020/12/21 07:24:39;;;;;;;7.30;3.13;;;5.90;99.90;;;;;;4903713;29;20108;-76
2020/12/21 07:27:05;;;;;;;9.60;2.80;;;6.00;99.90;;;;;;4897511;29;20052;-75
2020/12/21 07:29:41;;;;;;;10.18;2.97;;;6.00;99.90;;;;;;4896024;29;20024;-74
2020/12/21 07:32:07;;;;;;;12.73;3.30;;;5.80;99.90;;;;;;4898555;29;20033;-78
2020/12/21 07:34:35;;;;;;;11.18;3.35;;;5.70;99.90;;;;;;4896110;29;20036;-75
2020/12/21 07:37:07;;;;;;;6.68;3.28;;;5.60;99.90;;;;;;4911925;29;20032;-78
2020/12/21 07:39:33;;;;;;;7.80;3.17;;;5.50;99.90;;;;;;4914012;29;20522;-85
2020/12/21 07:42:03;;;;;;;19.10;4.07;;;5.50;99.90;;;;;;4909520;29;20024;-79
2020/12/21 07:44:34;;;;;;;9.38;3.08;;;5.40;99.90;;;;;;4899511;29;20032;-78
2020/12/21 07:47:01;;;;;;;8.65;2.90;;;5.30;99.90;;;;;;4900081;29;20020;-77
2020/12/21 07:49:30;;;;;;;13.55;3.25;;;5.30;99.90;;;;;;4900657;29;20024;-78
2020/12/21 07:52:05;;;;;;;12.02;3.58;;;5.40;99.90;;;;;;4902267;29;20035;-76
2020/12/21 07:54:38;;;;;;;19.65;4.05;;;5.30;99.90;;;;;;4908453;29;20024;-78
2020/12/21 07:57:05;;;;;;;9.18;3.30;;;5.30;99.90;;;;;;4903146;29;20079;-77
2020/12/21 07:59:32;;;;;;;7.53;3.35;;;5.30;99.90;;;;;;4915942;29;20135;-77
2020/12/21 08:01:59;;;;;;;8.77;2.88;;;5.20;99.90;;;;;;4912397;29;20404;-77
2020/12/21 08:04:25;;;;;;;7.90;3.13;;;5.20;99.90;;;;;;4899160;29;20062;-78
2020/12/21 08:06:51;;;;;;;12.05;3.30;;;5.20;99.90;;;;;;4900131;29;20020;-74
2020/12/21 08:09:18;;;;;;;12.32;3.70;;;5.20;99.90;;;;;;4901476;29;20097;-72
2020/12/21 08:11:43;;;;;;;8.95;3.20;;;5.20;99.90;;;;;;4901972;29;20029;-75
2020/12/21 08:14:16;;;;;;;9.80;3.25;;;5.10;99.90;;;;;;4901247;29;20077;-72
2020/12/21 08:16:41;;;;;;;8.70;2.97;;;5.10;99.90;;;;;;4898717;29;20113;-72
2020/12/21 08:19:13;;;;;;;11.45;3.22;;;5.10;99.90;;;;;;4898798;29;20136;-73
2020/12/21 08:21:40;;;;;;;9.63;3.25;;;5.10;99.90;;;;;;4898980;29;20354;-72
2020/12/21 08:24:06;;;;;;;8.52;3.47;;;5.10;99.90;;;;;;4899103;29;20029;-72
2020/12/21 08:26:35;;;;;;;8.07;3.08;;;5.10;99.90;;;;;;4903179;29;20052;-71
2020/12/21 08:29:01;;;;;;;9.27;3.25;;;5.10;99.90;;;;;;4909614;29;20060;-70
2020/12/21 08:31:26;;;;;;;12.52;3.15;;;5.10;99.90;;;;;;4899763;29;20037;-70
2020/12/21 08:34:04;;;;;;;9.15;2.95;;;5.00;99.90;;;;;;4899198;29;20083;-70
2020/12/21 08:36:37;;;;;;;6.95;3.20;;;5.00;99.90;;;;;;4900265;29;20029;-73
2020/12/21 08:39:18;;;;;;;7.60;2.90;;;5.40;99.90;;;;;;4900655;29;20040;-74
2020/12/21 08:42:00;;;;;;;9.15;3.20;;;6.30;99.90;;;;;;4900303;29;20616;-74
2020/12/21 08:44:29;;;;;;;6.38;2.58;;;6.50;99.90;;;;;;4908424;29;20120;-74
2020/12/21 08:47:00;;;;;;;11.05;2.72;;;6.20;99.90;;;;;;4900167;29;20048;-74
2020/12/21 08:49:26;;;;;;;;;;;5.90;99.90;;;;;;4898626;29;20552;-74
2020/12/21 08:51:52;;;;;;;9.18;2.53;;;5.70;99.90;;;;;;4898476;29;19914;-74
2020/12/21 08:54:18;;;;;;;7.85;3.00;;;5.60;99.90;;;;;;4898454;29;20499;-74
2020/12/21 08:56:48;;;;;;;15.32;3.60;;;5.50;99.90;;;;;;4899974;29;20028;-74
2020/12/21 08:59:15;;;;;;;15.77;3.40;;;5.40;99.90;;;;;;4909867;29;20041;-74
2020/12/21 09:01:45;;;;;;;8.02;3.17;;;5.40;99.90;;;;;;4899844;29;20507;-74
2020/12/21 09:04:11;;;;;;;10.70;2.75;;;5.40;99.90;;;;;;4900055;29;20021;-74
2020/12/21 09:06:38;;;;;;;9.75;3.20;;;5.40;99.90;;;;;;4898126;29;20051;-74
2020/12/21 09:09:05;;;;;;;9.98;2.70;;;5.40;99.90;;;;;;4898205;29;20397;-74
2020/12/21 09:11:31;;;;;;;6.95;2.75;;;5.30;99.90;;;;;;4898110;29;20050;-74
2020/12/21 09:13:57;;;;;;;6.47;2.40;;;5.30;99.90;;;;;;4899418;29;20064;-74
2020/12/21 09:16:25;;;;;;;6.90;2.60;;;5.30;99.90;;;;;;4897778;29;20037;-74
2020/12/21 09:18:52;;;;;;;5.90;2.90;;;5.30;99.90;;;;;;4897701;29;20045;-74
2020/12/21 09:21:22;;;;;;;10.35;3.00;;;5.40;99.90;;;;;;4897757;29;20020;-74
2020/12/21 09:23:49;;;;;;;9.02;2.78;;;5.30;99.90;;;;;;4899892;29;20035;-74
2020/12/21 09:26:16;;;;;;;7.65;3.10;;;5.30;99.90;;;;;;4901250;29;20424;-74
2020/12/21 09:28:42;;;;;;;10.52;3.08;;;5.40;99.90;;;;;;4908930;29;20063;-74
2020/12/21 09:31:09;;;;;;;7.53;2.83;;;5.30;99.90;;;;;;4897976;29;20048;-74
2020/12/21 09:33:35;;;;;;;4.07;2.13;;;5.30;99.90;;;;;;4897712;29;20038;-74
2020/12/21 09:36:01;;;;;;;12.35;2.30;;;5.30;99.90;;;;;;4897703;29;20036;-74
2020/12/21 09:38:27;;;;;;;5.68;2.38;;;5.30;99.90;;;;;;4910905;29;20041;-74
2020/12/21 09:40:52;;;;;;;5.75;2.10;;;5.30;99.90;;;;;;4907787;29;20031;-74
2020/12/21 09:43:18;;;;;;;5.43;2.22;;;5.30;99.90;;;;;;4900849;29;20366;-74
2020/12/21 09:45:44;;;;;;;7.28;2.33;;;5.30;99.90;;;;;;4905402;29;20028;-74
2020/12/21 09:48:09;;;;;;;5.55;2.28;;;5.30;99.90;;;;;;4916281;29;20024;-74
2020/12/21 09:50:35;;;;;;;6.72;2.33;;;5.40;99.90;;;;;;4910198;29;20041;-74
2020/12/21 09:53:01;;;;;;;8.90;2.90;;;5.40;99.90;;;;;;4897837;29;20029;-74
2020/12/21 09:55:26;;;;;;;10.15;2.53;;;5.40;99.90;;;;;;4910379;29;20059;-74
2020/12/21 09:57:56;;;;;;;13.48;3.15;;;5.40;99.90;;;;;;4897653;29;20103;-74
2020/12/21 10:00:21;;;;;;;11.63;2.63;;;5.40;99.90;;;;;;4912511;29;20066;-74
2020/12/21 10:02:47;;;;;;;14.68;3.80;;;5.30;99.90;;;;;;4908096;29;20060;-74
2020/12/21 10:05:13;;;;;;;9.95;3.35;;;5.30;99.90;;;;;;4897843;29;20032;-74
2020/12/21 10:07:38;;;;;;;11.48;2.90;;;5.30;99.90;;;;;;4907683;29;20037;-74
2020/12/21 10:10:04;;;;;;;12.75;2.85;;;6.20;99.90;;;;;;4897357;29;20036;-74
2020/12/21 10:12:30;;;;;;;16.70;3.35;;;6.60;99.90;;;;;;4910393;29;20028;-74
2020/12/21 10:14:56;;;;;;;12.15;3.05;;;6.40;99.90;;;;;;4905543;29;20028;-74
2020/12/21 10:17:21;;;;;;;12.25;3.50;;;6.20;99.90;;;;;;4896587;29;20040;-73
2020/12/21 10:19:47;;;;;;;6.65;3.03;;;6.10;99.90;;;;;;4896634;29;20200;-73
2020/12/21 10:22:13;;;;;;;9.85;3.00;;;5.90;99.90;;;;;;4897450;29;20499;-72
2020/12/21 10:24:39;;;;;;;12.38;3.22;;;6.20;99.90;;;;;;4901945;29;20035;-74
2020/12/21 10:27:04;;;;;;;11.98;2.80;;;6.30;99.90;;;;;;4897068;29;20047;-73
2020/12/21 10:29:30;;;;;;;11.20;3.00;;;6.30;99.90;;;;;;4897839;29;20461;-73
2020/12/21 10:31:59;;;;;;;15.73;4.72;;;6.20;99.90;;;;;;4908754;29;20628;-73
2020/12/21 10:34:26;;;;;;;9.30;3.13;;;6.00;99.90;;;;;;4897679;29;20071;-73
2020/12/21 10:36:52;;;;;;;14.70;3.22;;;6.00;99.90;;;;;;4901772;29;20045;-72
2020/12/21 10:39:19;;;;;;;13.80;3.83;;;6.20;99.90;;;;;;4904598;29;20100;-72
2020/12/21 10:41:45;;;;;;;11.77;3.60;;;6.30;99.90;;;;;;4900111;29;20354;-72
2020/12/21 10:44:11;;;;;;;10.10;2.95;;;6.20;99.90;;;;;;4896458;29;20480;-72
2020/12/21 10:46:37;;;;;;;9.35;3.25;;;6.10;99.90;;;;;;4898108;29;20032;-72
2020/12/21 10:49:03;;;;;;;13.70;3.47;;;6.00;99.90;;;;;;4898182;29;20085;-72
2020/12/21 10:51:31;;;;;;;14.82;3.42;;;5.90;99.90;;;;;;4896250;29;20028;-72
2020/12/21 10:53:57;;;;;;;8.35;2.97;;;5.90;99.90;;;;;;4906287;29;20388;-72
2020/12/21 10:56:23;;;;;;;13.15;3.20;;;5.80;99.90;;;;;;4896109;29;20519;-72
2020/12/21 10:58:49;;;;;;;8.20;2.75;;;5.70;99.90;;;;;;4908065;29;20050;-70
2020/12/21 11:01:18;;;;;;;6.63;2.60;;;5.60;99.90;;;;;;4907903;29;20084;-71
2020/12/21 11:03:44;;;;;;;8.45;2.92;;;5.60;99.90;;;;;;4903962;29;20080;-72
2020/12/21 11:06:10;;;;;;;3.67;1.88;;;5.60;99.90;;;;;;4896161;29;20032;-72
2020/12/21 11:08:37;;;;;;;6.90;1.83;;;5.50;99.90;;;;;;4903970;29;20020;-72
2020/12/21 11:11:03;;;;;;;5.10;1.75;;;5.50;99.90;;;;;;4896199;29;20029;-72
2020/12/21 11:13:29;;;;;;;3.60;1.55;;;5.50;99.90;;;;;;4906336;29;20032;-72
2020/12/21 11:15:55;;;;;;;2.85;1.55;;;5.50;99.90;;;;;;4900285;29;20390;-72
2020/12/21 11:18:20;;;;;;;4.10;1.70;;;5.50;99.90;;;;;;4907543;29;20063;-72
2020/12/21 11:20:46;;;;;;;5.90;1.77;;;5.60;99.90;;;;;;4902868;29;20024;-72
2020/12/21 11:23:12;;;;;;;5.60;1.80;;;5.50;99.90;;;;;;4918628;29;20039;-72
2020/12/21 11:25:38;;;;;;;6.53;1.65;;;5.60;99.90;;;;;;4908514;29;20510;-72
2020/12/21 11:28:04;;;;;;;4.18;1.67;;;5.60;99.90;;;;;;4916037;29;20496;-72
2020/12/21 11:30:31;;;;;;;3.78;1.55;;;5.60;99.90;;;;;;4908452;29;20024;-72
2020/12/21 11:32:57;;;;;;;4.13;1.55;;;5.60;99.90;;;;;;4904682;29;20300;-72
2020/12/21 11:35:24;;;;;;;5.25;2.03;;;5.70;99.90;;;;;;4899908;29;20028;-72
2020/12/21 11:37:51;;;;;;;5.53;2.40;;;5.60;99.90;;;;;;4900153;29;20389;-72
2020/12/21 11:40:17;;;;;;;8.82;2.42;;;5.60;99.90;;;;;;4918393;29;20224;-72
2020/12/21 11:42:42;;;;;;;6.07;2.70;;;5.60;99.90;;;;;;4918907;29;20035;-72
2020/12/21 11:45:08;;;;;;;9.85;2.65;;;5.60;99.90;;;;;;4901815;29;20433;-72
2020/12/21 11:47:34;;;;;;;11.68;1.98;;;5.60;99.90;;;;;;4899881;29;20468;-72
2020/12/21 11:50:00;;;;;;;10.63;2.33;;;5.60;99.90;;;;;;4914213;29;20035;-72
2020/12/21 11:52:29;;;;;;;8.45;2.03;;;5.60;99.90;;;;;;4911546;29;20481;-72
2020/12/21 11:54:54;;;;;;;5.90;2.63;;;5.50;99.90;;;;;;4899589;29;20476;-72
2020/12/21 11:57:20;;;;;;;8.93;2.17;;;5.40;99.90;;;;;;4899548;29;20024;-72
2020/12/21 11:59:46;;;;;;;3.75;1.85;;;5.40;99.90;;;;;;4910501;29;20036;-72
2020/12/21 12:02:11;;;;;;;9.73;2.95;;;5.40;99.90;;;;;;4901241;29;20023;-72
2020/12/21 12:04:38;;;;;;;7.32;2.58;;;5.30;99.90;;;;;;4899303;29;20084;-72
2020/12/21 12:07:07;;;;;;;7.50;2.33;;;5.40;99.90;;;;;;4901703;29;20039;-72
2020/12/21 12:09:33;;;;;;;4.63;2.00;;;5.40;99.90;;;;;;4909963;29;20131;-72
2020/12/21 12:11:59;;;;;;;4.75;2.40;;;5.40;99.90;;;;;;4899190;29;20502;-72
2020/12/21 12:14:24;;;;;;;7.78;2.50;;;5.50;99.90;;;;;;4899485;29;20029;-72
2020/12/21 12:16:52;;;;;;;5.55;2.50;;;5.50;99.90;;;;;;4898924;29;20477;-72
2020/12/21 12:19:22;;;;;;;7.68;2.38;;;5.40;99.90;;;;;;4898802;29;20048;-72
2020/12/21 12:21:48;;;;;;;8.38;2.33;;;5.40;99.90;;;;;;4898794;29;20400;-72
2020/12/21 12:24:14;;;;;;;9.38;2.10;;;5.40;99.90;;;;;;4898561;29;20377;-72
2020/12/21 12:26:40;;;;;;;9.30;2.22;;;5.40;99.90;;;;;;4904129;29;20035;-72
2020/12/21 12:29:05;;;;;;;5.10;2.22;;;5.40;99.90;;;;;;4907243;29;20032;-72
2020/12/21 12:31:31;;;;;;;10.05;2.25;;;5.40;99.90;;;;;;4915396;29;20063;-72
2020/12/21 12:33:57;;;;;;;9.23;2.60;;;5.40;99.90;;;;;;4908939;29;20385;-72
2020/12/21 12:36:26;;;;;;;8.13;2.30;;;5.40;99.90;;;;;;4898669;29;20488;-72
2020/12/21 12:38:52;;;;;;;7.00;2.17;;;5.30;99.90;;;;;;4898576;29;20036;-72
2020/12/21 12:41:18;;;;;;;4.32;2.00;;;5.30;99.90;;;;;;4911867;29;20071;-72
2020/12/21 12:43:44;;;;;;;7.18;2.45;;;5.20;99.90;;;;;;4912237;29;20028;-72
2020/12/21 12:46:10;;;;;;;6.20;2.47;;;5.20;99.90;;;;;;4898668;29;20384;-72
2020/12/21 12:48:36;;;;;;;5.65;2.40;;;5.20;99.90;;;;;;4898701;29;20025;-72
2020/12/21 12:51:03;;;;;;;5.47;2.30;;;5.10;99.90;;;;;;4898887;29;20100;-72
2020/12/21 12:53:29;;;;;;;9.48;2.95;;;5.10;99.90;;;;;;4912056;29;20399;-72
2020/12/21 12:55:55;;;;;;;4.97;2.20;;;5.10;99.90;;;;;;4898791;29;20095;-72
2020/12/21 12:58:21;;;;;;;5.20;2.65;;;5.10;99.90;;;;;;4911506;29;20479;-72
2020/12/21 13:00:46;;;;;;;7.78;2.33;;;5.10;99.90;;;;;;4904142;29;20040;-72
2020/12/21 13:03:12;;;;;;;5.28;2.20;;;5.10;99.90;;;;;;4914066;29;20035;-73
2020/12/21 13:05:38;;;;;;;6.18;2.30;;;5.30;99.90;;;;;;4899561;29;20055;-71
2020/12/21 13:08:04;;;;;;;6.50;2.40;;;5.40;99.90;;;;;;4898138;29;20048;-77
2020/12/21 13:10:31;;;;;;;8.35;2.60;;;5.40;99.90;;;;;;4900288;29;20504;-74
2020/12/21 13:12:57;;;;;;;8.88;2.92;;;5.30;99.90;;;;;;4914003;29;20032;-74
2020/12/21 13:15:23;;;;;;;11.20;2.67;;;5.30;99.90;;;;;;4899776;29;20039;-74
2020/12/21 13:17:49;;;;;;;10.27;2.80;;;5.30;99.90;;;;;;4897752;29;20033;-75
2020/12/21 13:20:15;;;;;;;8.70;3.45;;;5.20;99.90;;;;;;4897840;29;20043;-74
2020/12/21 13:22:41;;;;;;;8.18;3.25;;;5.20;99.90;;;;;;4902015;29;20118;-74
2020/12/21 13:25:06;;;;;;;11.65;3.40;;;5.20;99.90;;;;;;4903444;29;20036;-75
2020/12/21 13:27:32;;;;;;;6.80;2.70;;;5.20;99.90;;;;;;4897857;29;20033;-74
2020/12/21 13:29:59;;;;;;;6.32;3.03;;;5.30;99.90;;;;;;4910967;29;20039;-75
2020/12/21 13:32:25;;;;;;;7.78;2.75;;;5.30;99.90;;;;;;4897830;29;20116;-74
2020/12/21 13:34:50;;;;;;;5.53;3.00;;;5.30;99.90;;;;;;4910396;29;20088;-74
2020/12/21 13:37:17;;;;;;;7.90;2.95;;;5.30;99.90;;;;;;4897626;29;20033;-75
2020/12/21 13:39:42;;;;;;;5.82;2.72;;;5.30;99.90;;;;;;4911438;29;20043;-75
2020/12/21 13:42:08;;;;;;;6.60;3.05;;;5.20;99.90;;;;;;4916396;29;20115;-75
2020/12/21 13:44:34;;;;;;;6.65;2.67;;;5.30;99.90;;;;;;4904264;29;20064;-74
2020/12/21 13:47:00;;;;;;;12.15;2.78;;;5.30;99.90;;;;;;4910567;29;20025;-74
2020/12/21 13:49:27;;;;;;;7.82;2.67;;;5.30;99.90;;;;;;4908186;29;20028;-75
2020/12/21 13:51:52;;;;;;;9.40;3.15;;;5.20;99.90;;;;;;4913280;29;20063;-74
2020/12/21 13:54:18;;;;;;;7.25;3.20;;;5.20;99.90;;;;;;4906205;29;20055;-75
2020/12/21 13:56:44;;;;;;;5.65;1.85;;;5.20;99.90;;;;;;4913897;29;20047;-74
2020/12/21 13:59:10;;;;;;;8.38;2.85;;;5.30;99.90;;;;;;4897485;29;20463;-75
2020/12/21 14:01:36;;;;;;;12.23;3.05;;;6.10;99.90;;;;;;4909412;29;20488;-78
2020/12/21 14:04:03;;;;;;;11.70;3.50;;;6.10;99.90;;;;;;4898306;29;20024;-73
2020/12/21 14:06:28;;;;;;;6.38;2.75;;;5.90;99.90;;;;;;4897241;29;20044;-72
2020/12/21 14:08:54;;;;;;;11.57;2.60;;;6.00;99.90;;;;;;4896972;29;20459;-72
2020/12/21 14:11:20;;;;;;;9.40;2.50;;;6.10;99.90;;;;;;4897121;29;20381;-72
2020/12/21 14:13:52;;;;;;;6.60;3.00;;;6.00;99.90;;;;;;4910387;29;20028;-72
2020/12/21 14:16:19;;;;;;;10.73;3.50;;;5.80;99.90;;;;;;4914941;29;20060;-72
2020/12/21 14:18:50;;;;;;;6.95;3.22;;;5.70;99.90;;;;;;4913490;29;20048;-72
2020/12/21 14:21:16;;;;;;;;;;;5.60;99.90;;;;;;4908873;29;20024;-72
2020/12/21 14:23:42;;;;;;;7.75;3.22;;;5.50;99.90;;;;;;4909046;29;20347;-72
2020/12/21 14:26:08;;;;;;;9.80;3.00;;;5.40;99.90;;;;;;4896555;29;20507;-72
2020/12/21 14:28:35;;;;;;;12.50;3.40;;;5.40;99.90;;;;;;4897135;29;20028;-72
2020/12/21 14:31:01;;;;;;;9.35;3.08;;;5.30;99.90;;;;;;4909447;29;20551;-72
2020/12/21 14:33:29;;;;;;;9.52;3.38;;;5.30;99.90;;;;;;4902549;29;20172;-72
2020/12/21 14:35:55;;;;;;;12.05;4.10;;;5.30;99.90;;;;;;4904862;29;20032;-73
2020/12/21 14:38:21;;;;;;;5.30;1.92;;;5.30;99.90;;;;;;4896677;29;20045;-72
2020/12/21 14:40:46;;;;;;;11.73;3.38;;;5.70;99.90;;;;;;4906033;29;20115;-72
2020/12/21 14:43:12;;;;;;;13.63;3.42;;;6.50;99.90;;;;;;4914050;29;20024;-72
2020/12/21 14:45:38;;;;;;;14.45;3.70;;;6.40;99.90;;;;;;4897304;29;20036;-71
2020/12/21 14:48:04;;;;;;;15.80;4.90;;;6.10;99.90;;;;;;4901201;29;20032;-72
2020/12/21 14:50:30;;;;;;;18.13;4.80;;;5.80;99.90;;;;;;4898159;29;20028;-72
2020/12/21 14:52:56;;;;;;;12.77;3.88;;;5.60;99.90;;;;;;4897355;29;20104;-72
2020/12/21 14:55:22;;;;;;;16.63;4.68;;;5.50;99.90;;;;;;4898357;29;20181;-72
2020/12/21 14:57:48;;;;;;;16.92;4.78;;;5.30;99.90;;;;;;4902423;29;20101;-72
2020/12/21 15:00:14;;;;;;;11.38;4.15;;;5.30;99.90;;;;;;4899816;29;20027;-72
2020/12/21 15:02:39;;;;;;;8.82;3.20;;;5.30;99.90;;;;;;4898658;29;20036;-72
2020/12/21 15:05:07;;;;;;;14.93;4.35;;;5.30;99.90;;;;;;4909562;29;20036;-72
2020/12/21 15:07:40;;;;;;;13.88;3.85;;;5.20;99.90;;;;;;4895881;29;20036;-72
2020/12/21 15:10:08;;;;;;;14.77;4.03;;;5.20;99.90;;;;;;4895754;29;20507;-72
2020/12/21 15:12:34;;;;;;;14.05;3.72;;;5.20;99.90;;;;;;4898028;29;20021;-72
2020/12/21 15:15:02;;;;;;;10.38;4.18;;;5.10;99.90;;;;;;4901159;29;20119;-73
2020/12/21 15:17:28;;;;;;;15.95;3.78;;;5.10;99.90;;;;;;4904279;29;20035;-72
2020/12/21 15:19:54;;;;;;;10.70;3.80;;;5.10;99.90;;;;;;4899086;29;20374;-72
2020/12/21 15:22:20;;;;;;;8.65;4.25;;;5.10;99.90;;;;;;4898678;29;20031;-73
2020/12/21 15:24:45;;;;;;;13.50;4.22;;;5.10;99.90;;;;;;4898776;29;20038;-72
2020/12/21 15:27:11;;;;;;;14.32;4.35;;;5.10;99.90;;;;;;4897704;29;20024;-72
2020/12/21 15:29:37;;;;;;;11.35;4.55;;;5.10;99.90;;;;;;4908443;29;20412;-74
2020/12/21 15:32:03;;;;;;;9.82;3.60;;;5.10;99.90;;;;;;4903558;29;20020;-73
2020/12/21 15:34:29;;;;;;;13.25;4.35;;;5.10;99.90;;;;;;4905133;29;20025;-71
2020/12/21 15:36:55;;;;;;;14.50;4.60;;;5.10;99.90;;;;;;4899508;29;20025;-71
2020/12/21 15:39:21;;;;;;;9.68;3.95;;;5.10;99.90;;;;;;4905427;29;20499;-75
2020/12/21 15:41:47;;;;;;;13.68;4.70;;;5.30;99.90;;;;;;4908910;29;20424;-76
2020/12/21 15:44:12;;;;;;;12.32;3.90;;;5.20;99.90;;;;;;4911317;29;20079;-75
2020/12/21 15:46:38;;;;;;;9.38;3.45;;;5.10;99.90;;;;;;4905742;29;20113;-75
2020/12/21 15:49:04;;;;;;;9.05;3.47;;;5.10;99.90;;;;;;4908007;29;20095;-74
2020/12/21 15:51:30;;;;;;;8.50;3.90;;;5.00;99.90;;;;;;4901071;29;20033;-72
2020/12/21 15:53:56;;;;;;;9.57;3.85;;;5.00;99.90;;;;;;4908695;29;20024;-72
2020/12/21 15:56:22;;;;;;;8.25;3.50;;;5.00;99.90;;;;;;4904731;29;20013;-73
2020/12/21 15:58:48;;;;;;;10.10;3.92;;;4.90;99.90;;;;;;4908094;29;20083;-72
2020/12/21 16:01:14;;;;;;;9.18;3.78;;;4.90;99.90;;;;;;4910185;29;20043;-73
2020/12/21 16:03:40;;;;;;;8.75;3.38;;;4.90;99.90;;;;;;4908761;29;20033;-73
2020/12/21 16:06:06;;;;;;;13.18;4.10;;;4.90;99.90;;;;;;4911904;29;20024;-75
2020/12/21 16:08:32;;;;;;;10.18;3.95;;;4.90;99.90;;;;;;4906647;29;20031;-73
2020/12/21 16:10:58;;;;;;;8.82;3.42;;;4.90;99.90;;;;;;4911933;29;20072;-73
2020/12/21 16:13:24;;;;;;;9.32;3.30;;;5.00;99.90;;;;;;4907974;29;20032;-76
2020/12/21 16:15:50;;;;;;;6.95;2.65;;;5.00;99.90;;;;;;4910302;29;20032;-72
2020/12/21 16:18:17;;;;;;;7.57;3.65;;;5.10;99.90;;;;;;4908321;29;20035;-73
2020/12/21 16:20:46;;;;;;;9.68;3.40;;;6.10;99.90;;;;;;4908522;29;20047;-71
2020/12/21 16:23:13;;;;;;;13.50;4.07;;;6.20;99.90;;;;;;4911396;29;20087;-71
2020/12/21 16:25:41;;;;;;;10.75;3.60;;;6.10;99.90;;;;;;4907171;29;20052;-71
2020/12/21 16:28:07;;;;;;;10.95;3.05;;;5.90;99.90;;;;;;4914673;29;20021;-71
2020/12/21 16:30:33;;;;;;;12.13;3.40;;;5.70;99.90;;;;;;4899290;29;20103;-71
2020/12/21 16:32:59;;;;;;;8.15;2.78;;;5.60;99.90;;;;;;4898762;29;20025;-71
2020/12/21 16:35:25;;;;;;;8.60;3.33;;;5.50;99.90;;;;;;4899019;29;20029;-73
2020/12/21 16:37:51;;;;;;;8.13;2.90;;;5.50;99.90;;;;;;4898975;29;20032;-73
2020/12/21 16:40:17;;;;;;;7.20;3.33;;;5.40;99.90;;;;;;4898909;29;20507;-73
2020/12/21 16:42:44;;;;;;;6.13;2.97;;;5.40;99.90;;;;;;4898875;29;20032;-73
2020/12/21 16:45:11;;;;;;;5.43;3.08;;;5.30;99.90;;;;;;4898791;29;20072;-73
2020/12/21 16:47:37;;;;;;;7.70;2.75;;;5.30;99.90;;;;;;4899414;29;20036;-72
2020/12/21 16:50:04;;;;;;;7.15;3.47;;;5.90;99.90;;;;;;4898513;29;20518;-71
2020/12/21 16:52:30;;;;;;;9.50;2.95;;;6.30;99.90;;;;;;4898676;29;20040;-74
2020/12/21 16:54:56;;;;;;;8.10;2.90;;;6.20;99.90;;;;;;4898586;29;20032;-73
2020/12/21 16:57:21;;;;;;;9.02;3.28;;;6.30;99.90;;;;;;4898697;29;20016;-79
2020/12/21 16:59:48;;;;;;;11.10;3.60;;;6.70;99.90;;;;;;4898650;29;20044;-77
2020/12/21 17:02:14;;;;;;;11.82;3.33;;;6.50;99.90;;;;;;4898883;29;20024;-77
2020/12/21 17:04:39;;;;;;;11.43;3.00;;;6.30;99.90;;;;;;4899018;29;20167;-78
2020/12/21 17:07:05;;;;;;;6.95;3.03;;;6.10;99.90;;;;;;4898511;29;20049;-75
2020/12/21 17:09:31;;;;;;;7.85;3.55;;;5.90;99.90;;;;;;4898603;29;20520;-76
2020/12/21 17:11:58;;;;;;;8.23;3.75;;;5.90;99.90;;;;;;4898163;29;20485;-76
2020/12/21 17:14:23;;;;;;;13.00;3.17;;;5.80;99.90;;;;;;4898365;29;20393;-76
2020/12/21 17:16:53;;;;;;;8.35;3.72;;;5.70;99.90;;;;;;4897906;29;20025;-75
2020/12/21 17:19:19;;;;;;;5.43;3.42;;;5.60;99.90;;;;;;4912359;29;20126;-73
2020/12/21 17:21:45;;;;;;;5.07;2.90;;;5.60;99.90;;;;;;4912536;29;20048;-73
2020/12/21 17:24:11;;;;;;;5.30;2.67;;;5.50;99.90;;;;;;4898291;29;20021;-71
2020/12/21 17:26:38;;;;;;;6.43;2.35;;;5.30;99.90;;;;;;4903154;29;20554;-73
2020/12/21 17:29:04;;;;;;;5.72;2.35;;;5.80;99.90;;;;;;4906625;29;20029;-74
2020/12/21 17:31:30;;;;;;;3.10;1.90;;;5.70;99.90;;;;;;4900664;29;20056;-77
2020/12/21 17:33:55;;;;;;;4.13;2.22;;;5.60;99.90;;;;;;4908492;29;20071;-75
2020/12/21 17:36:21;;;;;;;4.70;2.38;;;5.40;99.90;;;;;;4897891;29;20082;-76
2020/12/21 17:38:47;;;;;;;4.32;2.10;;;5.40;99.90;;;;;;4897494;29;20067;-76
2020/12/21 17:41:13;;;;;;;4.85;2.25;;;5.40;99.90;;;;;;4897735;29;20021;-75
2020/12/21 17:43:38;;;;;;;3.60;1.77;;;5.30;99.90;;;;;;4904483;29;20067;-75
2020/12/21 17:46:04;;;;;;;6.07;2.20;;;5.30;99.90;;;;;;4912928;29;20024;-75
2020/12/21 17:48:30;;;;;;;5.13;2.13;;;5.20;99.90;;;;;;4907607;29;20131;-75
2020/12/21 17:50:55;;;;;;;4.53;1.45;;;5.20;99.90;;;;;;4906263;29;20036;-74
2020/12/21 17:53:22;;;;;;;2.95;1.50;;;5.10;99.90;;;;;;4909835;29;20532;-76
2020/12/21 17:55:51;;;;;;;2.85;1.65;;;5.10;99.90;;;;;;4913027;29;20680;-76
2020/12/21 17:58:17;;;;;;;4.85;1.70;;;5.10;99.90;;;;;;4910046;29;20502;-77
2020/12/21 18:00:43;;;;;;;2.92;1.70;;;5.10;99.90;;;;;;4913191;29;20067;-77
2020/12/21 18:03:09;;;;;;;3.50;1.85;;;5.10;99.90;;;;;;4911933;29;20077;-77
2020/12/21 18:05:35;;;;;;;5.43;1.70;;;5.10;99.90;;;;;;4910254;29;20028;-77
2020/12/21 18:08:00;;;;;;;3.20;1.60;;;5.00;99.90;;;;;;4901254;29;20115;-77